Istra, Russia
Current Conditions -  °F | °C
As of 7:00 AM on Monday 24 Nov 2014 (Local Time) from UUEE Reporting Station
Light Snow Light Snow  
Wind Chill: 21°   Ceiling: 600
Heat Index: 27°   Visibility: 3mi
Dew Point: 25°   Wind: 4mph
Humidity: 93%   Direction: 60°ENE
Pressure: 30.65"   Gusts: NA
Location:  55.92°N, 36.86°E
Report Text: UUEE 240400Z 06002MPS 5000 -SN BR OVC006 M03/M04 Q1038 0700006257120057 NOSIG
Loading
Personal Weather Stations






























Interactive Weather Map New forecast layout! Learn more

10-Day Weather Forecast

Advertisements
Track Severe Weather on mobile